Time;durP1;ratioP1;P1;durP2;ratioP2;P2;SDS_P1;SDS_P2;PMS_P1;PMS_P2;Temp;Humidity;BMP_temperature;BMP_pressure;BME280_temperature;BME280_humidity;BME280_pressure;Samples;Min_cycle;Max_cycle;Signal;HPM_P1;HPM_P2
2021/09/18 00:00:50;;;;;;;;;;;21.20;69.60;;;;;;5013718;28;1089;-72
2021/09/18 00:03:15;;;;;;;;;;;21.10;69.50;;;;;;5022367;28;1128;-72
2021/09/18 00:05:40;;;;;;;;;;;21.10;69.60;;;;;;5002551;28;1895;-71
2021/09/18 00:08:06;;;;;;;;;;;21.20;69.60;;;;;;5025298;28;1045;-71
2021/09/18 00:10:31;;;;;;;;;;;21.10;69.60;;;;;;5013750;28;1181;-72
2021/09/18 00:12:57;;;;;;;;;;;21.10;69.60;;;;;;5013706;28;1140;-71
2021/09/18 00:15:22;;;;;;;;;;;21.10;69.60;;;;;;5013236;28;1061;-72
2021/09/18 00:17:48;;;;;;;;;;;21.10;69.60;;;;;;4996077;28;1282;-72
2021/09/18 00:20:13;;;;;;;;;;;21.20;69.70;;;;;;4995893;28;1311;-72
2021/09/18 00:22:38;;;;;;;;;;;21.10;69.70;;;;;;4996157;28;1158;-72
2021/09/18 00:25:04;;;;;;;;;;;21.10;69.60;;;;;;5013548;28;1914;-73
2021/09/18 00:27:30;;;;;;;;;;;21.20;69.70;;;;;;5013165;28;1057;-72
2021/09/18 00:29:55;;;;;;;;;;;21.20;69.70;;;;;;5013106;28;1253;-71
2021/09/18 00:32:20;;;;;;;;;;;21.10;69.70;;;;;;5013483;28;1253;-70
2021/09/18 00:34:46;;;;;;;;;;;21.20;69.80;;;;;;5013570;28;1140;-70
2021/09/18 00:37:11;;;;;;;;;;;21.20;69.70;;;;;;5013138;28;1093;-72
2021/09/18 00:39:37;;;;;;;;;;;21.10;69.70;;;;;;4995638;28;1216;-71
2021/09/18 00:42:02;;;;;;;;;;;21.10;69.70;;;;;;5013639;28;1132;-71
2021/09/18 00:44:28;;;;;;;;;;;21.20;69.80;;;;;;5013224;28;1085;-72
2021/09/18 00:46:53;;;;;;;;;;;21.10;69.70;;;;;;4995448;28;2002;-72
2021/09/18 00:49:19;;;;;;;;;;;21.10;69.70;;;;;;4995623;28;1355;-71
2021/09/18 00:51:44;;;;;;;;;;;21.10;69.70;;;;;;4995656;28;1135;-71
2021/09/18 00:54:10;;;;;;;;;;;21.10;69.70;;;;;;5013058;28;1323;-71
2021/09/18 00:56:35;;;;;;;;;;;21.10;69.70;;;;;;5012869;28;1128;-71
2021/09/18 00:59:01;;;;;;;;;;;21.10;69.70;;;;;;5013227;28;1268;-71
2021/09/18 01:01:26;;;;;;;;;;;21.10;69.80;;;;;;5012907;28;1171;-71
2021/09/18 01:03:52;;;;;;;;;;;21.20;69.90;;;;;;5012893;28;1053;-71
2021/09/18 01:06:17;;;;;;;;;;;21.10;69.80;;;;;;5012859;28;1902;-71
2021/09/18 01:08:43;;;;;;;;;;;21.10;69.80;;;;;;5012797;28;1377;-72
2021/09/18 01:11:08;;;;;;;;;;;21.10;69.80;;;;;;4993552;28;857;-72
2021/09/18 01:13:34;;;;;;;;;;;21.10;69.80;;;;;;5012974;28;1316;-71
2021/09/18 01:15:59;;;;;;;;;;;21.20;69.90;;;;;;5019012;28;1057;-71
2021/09/18 01:18:25;;;;;;;;;;;21.10;69.80;;;;;;5001012;28;1321;-72
2021/09/18 01:20:50;;;;;;;;;;;21.10;69.80;;;;;;5012815;28;1227;-71
2021/09/18 01:23:19;;;;;;;;;;;21.10;69.80;;;;;;5012725;28;1124;-71
2021/09/18 01:25:45;;;;;;;;;;;21.10;69.80;;;;;;5012434;28;2019;-72
2021/09/18 01:28:10;;;;;;;;;;;21.10;69.80;;;;;;5029705;28;1034;-72
2021/09/18 01:30:35;;;;;;;;;;;21.10;69.90;;;;;;4998805;28;1219;-72
2021/09/18 01:33:01;;;;;;;;;;;21.10;69.90;;;;;;4999010;28;1191;-72
2021/09/18 01:35:27;;;;;;;;;;;21.20;70.00;;;;;;4998973;28;1227;-72
2021/09/18 01:37:52;;;;;;;;;;;21.10;69.90;;;;;;4998817;28;1065;-72
2021/09/18 01:40:21;;;;;;;;;;;21.10;69.90;;;;;;5016364;28;1250;-72
2021/09/18 01:42:47;;;;;;;;;;;21.10;69.90;;;;;;4998835;28;1062;-72
2021/09/18 01:45:12;;;;;;;;;;;21.10;69.90;;;;;;4998559;28;1922;-72
2021/09/18 01:47:48;;;;;;;;;;;21.10;69.90;;;;;;4982271;28;1110;-72
2021/09/18 01:50:30;;;;;;;;;;;21.10;69.90;;;;;;4999002;28;1271;-72
2021/09/18 01:52:59;;;;;;;;;;;21.10;70.00;;;;;;5016106;28;1061;-72
2021/09/18 01:55:25;;;;;;;;;;;21.20;70.00;;;;;;4977830;28;1280;-72
2021/09/18 01:57:51;;;;;;;;;;;21.10;70.00;;;;;;5011483;28;1659;-72
2021/09/18 02:00:17;;;;;;;;;;;21.10;70.00;;;;;;4998677;28;1409;-72
2021/09/18 02:02:42;;;;;;;;;;;21.20;70.00;;;;;;4997654;28;1501;-72
2021/09/18 02:05:08;;;;;;;;;;;21.10;70.00;;;;;;4997448;28;1902;-72
2021/09/18 02:07:33;;;;;;;;;;;21.10;70.00;;;;;;4996872;28;1335;-71
2021/09/18 02:09:59;;;;;;;;;;;21.10;70.00;;;;;;4997283;28;1482;-71
2021/09/18 02:12:24;;;;;;;;;;;21.10;70.20;;;;;;5014732;28;1614;-72
2021/09/18 02:14:49;;;;;;;;;;;21.10;70.00;;;;;;5015289;28;1159;-72
2021/09/18 02:17:15;;;;;;;;;;;21.10;70.00;;;;;;5014854;28;1448;-72
2021/09/18 02:19:40;;;;;;;;;;;21.10;70.00;;;;;;5015806;28;1349;-72
2021/09/18 02:22:06;;;;;;;;;;;21.10;70.00;;;;;;5015435;28;1108;-72
2021/09/18 02:24:31;;;;;;;;;;;21.10;70.00;;;;;;4997414;28;1545;-72
2021/09/18 02:26:57;;;;;;;;;;;21.10;70.00;;;;;;5013919;28;1903;-72
2021/09/18 02:29:22;;;;;;;;;;;21.10;70.00;;;;;;5015347;28;1354;-73
2021/09/18 02:31:47;;;;;;;;;;;21.10;70.00;;;;;;5010375;28;1542;-72
2021/09/18 02:34:13;;;;;;;;;;;21.10;70.10;;;;;;5015442;28;1057;-71
2021/09/18 02:36:38;;;;;;;;;;;21.10;70.10;;;;;;4997186;28;1185;-72
2021/09/18 02:39:04;;;;;;;;;;;21.20;70.20;;;;;;5012273;28;1249;-71
2021/09/18 02:41:29;;;;;;;;;;;21.10;70.10;;;;;;5027421;28;1041;-72
2021/09/18 02:43:54;;;;;;;;;;;21.10;70.10;;;;;;5001418;28;1284;-72
2021/09/18 02:46:20;;;;;;;;;;;21.10;70.10;;;;;;5014568;28;1894;-72
2021/09/18 02:48:45;;;;;;;;;;;21.10;70.10;;;;;;5008571;28;1261;-72
2021/09/18 02:51:11;;;;;;;;;;;21.10;70.10;;;;;;5003070;28;1335;-72
2021/09/18 02:53:36;;;;;;;;;;;21.10;70.10;;;;;;5014716;28;1299;-73
2021/09/18 02:56:02;;;;;;;;;;;21.10;70.10;;;;;;5003784;28;1218;-71
2021/09/18 02:58:27;;;;;;;;;;;21.10;70.10;;;;;;5005689;28;1261;-73
2021/09/18 03:00:53;;;;;;;;;;;21.10;70.20;;;;;;4999375;28;1167;-72
2021/09/18 03:03:18;;;;;;;;;;;21.10;70.10;;;;;;4997381;28;1247;-71
2021/09/18 03:05:43;;;;;;;;;;;21.10;70.10;;;;;;5014469;28;1953;-72
2021/09/18 03:08:09;;;;;;;;;;;21.10;70.20;;;;;;5014617;28;1384;-72
2021/09/18 03:10:34;;;;;;;;;;;21.20;70.20;;;;;;5015103;28;1464;-72
2021/09/18 03:13:00;;;;;;;;;;;21.10;70.20;;;;;;5014888;28;1275;-72
2021/09/18 03:15:25;;;;;;;;;;;21.10;70.20;;;;;;4997166;28;1345;-72
2021/09/18 03:17:50;;;;;;;;;;;21.10;70.20;;;;;;5014760;28;1069;-72
2021/09/18 03:20:16;;;;;;;;;;;21.10;70.20;;;;;;4997001;28;1331;-72
2021/09/18 03:22:41;;;;;;;;;;;21.10;70.20;;;;;;5014529;28;1267;-72
2021/09/18 03:25:07;;;;;;;;;;;21.10;70.20;;;;;;5014167;28;1954;-72
2021/09/18 03:27:32;;;;;;;;;;;21.20;70.30;;;;;;5014189;28;1308;-72
2021/09/18 03:29:58;;;;;;;;;;;21.10;70.20;;;;;;5028066;28;1270;-72
2021/09/18 03:32:23;;;;;;;;;;;21.10;70.30;;;;;;4996807;28;1207;-72
2021/09/18 03:34:49;;;;;;;;;;;21.10;70.30;;;;;;5014388;28;1049;-71
2021/09/18 03:37:14;;;;;;;;;;;21.10;70.30;;;;;;5014009;28;1345;-70
2021/09/18 03:39:40;;;;;;;;;;;21.10;70.30;;;;;;5013947;28;1249;-71
2021/09/18 03:42:05;;;;;;;;;;;21.10;70.30;;;;;;4996552;28;1136;-71
2021/09/18 03:44:31;;;;;;;;;;;21.20;70.30;;;;;;5014126;28;1387;-70
2021/09/18 03:46:56;;;;;;;;;;;21.10;70.30;;;;;;4996260;28;1977;-71
2021/09/18 03:49:21;;;;;;;;;;;21.10;70.30;;;;;;4996556;28;1303;-70
2021/09/18 03:51:47;;;;;;;;;;;21.10;71.10;;;;;;4996789;28;1274;-70
2021/09/18 03:54:12;;;;;;;;;;;21.10;70.30;;;;;;5013761;28;1264;-71
2021/09/18 03:56:38;;;;;;;;;;;21.10;70.40;;;;;;5013878;28;1302;-71
2021/09/18 03:59:03;;;;;;;;;;;21.10;70.30;;;;;;5013842;28;1208;-71
2021/09/18 04:01:28;;;;;;;;;;;21.10;70.30;;;;;;5014638;28;1092;-71
2021/09/18 04:03:55;;;;;;;;;;;21.10;70.30;;;;;;4996151;28;1353;-71
2021/09/18 04:06:21;;;;;;;;;;;21.10;70.40;;;;;;4996238;28;1961;-71
2021/09/18 04:08:46;;;;;;;;;;;21.10;70.40;;;;;;5013435;28;1353;-71
2021/09/18 04:11:11;;;;;;;;;;;21.10;70.40;;;;;;5020541;28;1107;-71
2021/09/18 04:13:37;;;;;;;;;;;21.10;70.40;;;;;;5002631;28;1324;-71
2021/09/18 04:16:02;;;;;;;;;;;21.10;70.40;;;;;;5019726;28;870;-70
2021/09/18 04:18:28;;;;;;;;;;;21.10;70.40;;;;;;5020317;28;1273;-70
2021/09/18 04:20:53;;;;;;;;;;;21.10;70.40;;;;;;5002130;28;1312;-71
2021/09/18 04:23:19;;;;;;;;;;;21.10;70.40;;;;;;5020625;28;1308;-71
2021/09/18 04:25:44;;;;;;;;;;;21.10;70.40;;;;;;5013063;28;1922;-71
2021/09/18 04:28:09;;;;;;;;;;;21.10;70.40;;;;;;5013376;28;1297;-71
2021/09/18 04:30:35;;;;;;;;;;;21.10;71.20;;;;;;5013252;28;1417;-71
2021/09/18 04:33:00;;;;;;;;;;;21.10;70.50;;;;;;5013350;28;1057;-71
2021/09/18 04:35:26;;;;;;;;;;;21.10;70.50;;;;;;5013282;28;1231;-70
2021/09/18 04:37:51;;;;;;;;;;;21.10;70.50;;;;;;5012856;28;1088;-71
2021/09/18 04:40:17;;;;;;;;;;;21.10;70.50;;;;;;5013578;28;1357;-72
2021/09/18 04:42:42;;;;;;;;;;;21.10;70.50;;;;;;5013286;28;1314;-71
2021/09/18 04:45:08;;;;;;;;;;;21.10;70.50;;;;;;4995482;28;1994;-70
2021/09/18 04:47:33;;;;;;;;;;;21.10;70.50;;;;;;4995545;28;1303;-70
2021/09/18 04:49:59;;;;;;;;;;;21.10;70.50;;;;;;5012983;28;1295;-70
2021/09/18 04:52:24;;;;;;;;;;;21.10;70.50;;;;;;5013021;28;1265;-71
2021/09/18 04:54:52;;;;;;;;;;;21.10;70.60;;;;;;4995390;28;1276;-70
2021/09/18 04:57:18;;;;;;;;;;;21.10;70.60;;;;;;4995675;28;1310;-70
2021/09/18 04:59:43;;;;;;;;;;;21.10;70.50;;;;;;5012946;28;1321;-70
2021/09/18 05:02:08;;;;;;;;;;;21.10;70.60;;;;;;5012409;28;1152;-71
2021/09/18 05:04:34;;;;;;;;;;;21.10;70.60;;;;;;5013116;28;1313;-70
2021/09/18 05:06:59;;;;;;;;;;;21.10;70.60;;;;;;5012506;28;1957;-71
2021/09/18 05:09:25;;;;;;;;;;;21.10;70.60;;;;;;5012757;28;1355;-72
2021/09/18 05:11:50;;;;;;;;;;;21.10;70.60;;;;;;5012985;28;1148;-71
2021/09/18 05:14:17;;;;;;;;;;;21.10;70.60;;;;;;4995202;28;1428;-71
2021/09/18 05:16:42;;;;;;;;;;;21.10;70.60;;;;;;4995181;28;1344;-71
2021/09/18 05:19:08;;;;;;;;;;;21.10;70.60;;;;;;5012600;28;1348;-72
2021/09/18 05:21:33;;;;;;;;;;;21.10;70.70;;;;;;5012771;28;1293;-72
2021/09/18 05:23:59;;;;;;;;;;;21.10;70.60;;;;;;4995111;28;1332;-71
2021/09/18 05:26:24;;;;;;;;;;;21.10;70.70;;;;;;5024955;28;1911;-71
2021/09/18 05:28:51;;;;;;;;;;;21.10;70.60;;;;;;5013742;28;1562;-70
2021/09/18 05:31:17;;;;;;;;;;;21.10;70.70;;;;;;5012760;28;1277;-70
2021/09/18 05:33:42;;;;;;;;;;;21.10;70.70;;;;;;5018831;28;1350;-71
2021/09/18 05:36:08;;;;;;;;;;;21.10;70.70;;;;;;5020268;28;1324;-71
2021/09/18 05:38:33;;;;;;;;;;;21.10;70.70;;;;;;4978729;28;1525;-71
2021/09/18 05:40:59;;;;;;;;;;;21.10;70.70;;;;;;5012759;28;1287;-71
2021/09/18 05:43:24;;;;;;;;;;;21.10;70.70;;;;;;4995005;28;1318;-70
2021/09/18 05:45:50;;;;;;;;;;;21.10;70.70;;;;;;5000603;28;1926;-71
2021/09/18 05:48:16;;;;;;;;;;;21.10;70.70;;;;;;5001148;28;1943;-71
2021/09/18 05:50:42;;;;;;;;;;;21.10;70.70;;;;;;4977440;28;1299;-70
2021/09/18 05:53:08;;;;;;;;;;;21.10;70.80;;;;;;4994200;28;1109;-69
2021/09/18 05:55:34;;;;;;;;;;;21.10;70.80;;;;;;5011723;28;1246;-68
2021/09/18 05:57:59;;;;;;;;;;;21.10;70.80;;;;;;5011768;28;1364;-68
2021/09/18 06:00:25;;;;;;;;;;;21.10;70.80;;;;;;5011530;28;1210;-71
2021/09/18 06:02:50;;;;;;;;;;;21.10;70.80;;;;;;5011266;28;1268;-71
2021/09/18 06:05:16;;;;;;;;;;;21.10;70.70;;;;;;5011363;28;1918;-73
2021/09/18 06:07:41;;;;;;;;;;;21.10;71.10;;;;;;4993667;28;1352;-73
2021/09/18 06:10:07;;;;;;;;;;;21.10;71.10;;;;;;4977531;28;1342;-74
2021/09/18 06:12:32;;;;;;;;;;;21.10;71.10;;;;;;4993996;28;1287;-73
2021/09/18 06:14:58;;;;;;;;;;;21.10;71.10;;;;;;5014672;28;990;-73
2021/09/18 06:17:24;;;;;;;;;;;21.10;71.20;;;;;;4996630;28;1591;-72
2021/09/18 06:19:49;;;;;;;;;;;21.10;71.30;;;;;;5014768;28;1318;-72
2021/09/18 06:22:15;;;;;;;;;;;21.10;71.30;;;;;;4974001;28;1464;-73
2021/09/18 06:24:40;;;;;;;;;;;21.10;71.30;;;;;;4976223;28;1297;-72
2021/09/18 06:27:06;;;;;;;;;;;21.10;71.40;;;;;;4995805;28;1898;-72
2021/09/18 06:29:31;;;;;;;;;;;21.10;71.30;;;;;;4980832;28;1357;-73
2021/09/18 06:31:56;;;;;;;;;;;21.10;71.40;;;;;;4997022;28;1127;-70
2021/09/18 06:34:23;;;;;;;;;;;21.10;71.60;;;;;;5014817;28;1472;-69
2021/09/18 06:36:49;;;;;;;;;;;21.10;71.40;;;;;;4996406;28;1332;-69
2021/09/18 06:39:14;;;;;;;;;;;21.10;71.30;;;;;;4996887;28;1431;-69
2021/09/18 06:41:40;;;;;;;;;;;21.10;71.30;;;;;;5014557;28;1335;-68
2021/09/18 06:44:05;;;;;;;;;;;21.10;71.40;;;;;;5014292;28;1285;-68
2021/09/18 06:46:30;;;;;;;;;;;21.10;71.40;;;;;;5017857;28;1966;-72
2021/09/18 06:48:56;;;;;;;;;;;21.10;71.40;;;;;;5005976;28;1260;-70
2021/09/18 06:51:21;;;;;;;;;;;21.10;71.40;;;;;;4996374;28;1667;-68
2021/09/18 06:53:47;;;;;;;;;;;21.10;71.40;;;;;;5014194;28;1441;-69
2021/09/18 06:56:12;;;;;;;;;;;21.10;71.40;;;;;;5013276;28;1340;-70
2021/09/18 06:58:37;;;;;;;;;;;21.10;71.40;;;;;;5004804;28;1336;-69
2021/09/18 07:01:03;;;;;;;;;;;21.10;71.40;;;;;;5014404;28;1375;-70
2021/09/18 07:03:28;;;;;;;;;;;21.10;71.40;;;;;;5009826;28;1503;-69
2021/09/18 07:05:54;;;;;;;;;;;21.10;71.40;;;;;;5013272;28;1969;-69
2021/09/18 07:08:19;;;;;;;;;;;21.10;71.40;;;;;;5013583;28;1316;-70
2021/09/18 07:10:45;;;;;;;;;;;21.10;71.40;;;;;;5014730;28;1325;-69
2021/09/18 07:13:10;;;;;;;;;;;21.10;71.50;;;;;;5014631;28;1281;-69
2021/09/18 07:15:35;;;;;;;;;;;21.20;71.50;;;;;;5014286;28;1375;-69
2021/09/18 07:18:01;;;;;;;;;;;21.10;71.50;;;;;;5014640;28;1293;-70
2021/09/18 07:20:26;;;;;;;;;;;21.10;71.40;;;;;;5014682;28;1276;-69
2021/09/18 07:22:52;;;;;;;;;;;21.10;71.50;;;;;;5014697;28;1338;-69
2021/09/18 07:25:17;;;;;;;;;;;21.10;71.50;;;;;;4996393;28;1976;-69
2021/09/18 07:27:43;;;;;;;;;;;21.10;71.50;;;;;;5014230;28;1269;-69
2021/09/18 07:30:08;;;;;;;;;;;21.10;71.50;;;;;;5014300;28;1396;-68
2021/09/18 07:32:34;;;;;;;;;;;21.20;71.50;;;;;;5014536;28;1297;-68
2021/09/18 07:35:05;;;;;;;;;;;21.10;71.40;;;;;;5027059;28;1073;-68
2021/09/18 07:37:31;;;;;;;;;;;21.10;71.50;;;;;;4997352;28;1258;-68
2021/09/18 07:39:56;;;;;;;;;;;21.10;71.50;;;;;;5014428;28;1289;-69
2021/09/18 07:42:22;;;;;;;;;;;21.10;71.50;;;;;;5014268;28;1294;-70
2021/09/18 07:44:47;;;;;;;;;;;21.10;71.50;;;;;;4996518;28;1167;-70
2021/09/18 07:47:13;;;;;;;;;;;21.10;71.50;;;;;;5013819;28;1947;-70
2021/09/18 07:49:38;;;;;;;;;;;21.10;71.50;;;;;;5013677;28;1263;-70
2021/09/18 07:52:04;;;;;;;;;;;21.20;71.50;;;;;;5013865;28;1280;-70
2021/09/18 07:54:31;;;;;;;;;;;21.10;71.50;;;;;;5014145;28;1319;-70
2021/09/18 07:56:56;;;;;;;;;;;21.10;71.50;;;;;;5013904;28;1269;-69
2021/09/18 07:59:22;;;;;;;;;;;21.20;71.60;;;;;;5013835;28;1353;-70
2021/09/18 08:01:47;;;;;;;;;;;21.10;71.50;;;;;;5013754;28;1339;-70
2021/09/18 08:04:13;;;;;;;;;;;21.10;71.50;;;;;;5013684;28;1296;-70
2021/09/18 08:06:38;;;;;;;;;;;21.10;71.50;;;;;;5013400;28;1899;-70
2021/09/18 08:09:04;;;;;;;;;;;21.10;71.50;;;;;;5013719;28;1410;-70
2021/09/18 08:11:29;;;;;;;;;;;21.10;71.50;;;;;;4980174;28;1464;-70
2021/09/18 08:13:55;;;;;;;;;;;21.10;71.50;;;;;;5013709;28;1341;-70
2021/09/18 08:16:21;;;;;;;;;;;21.10;71.50;;;;;;5013318;28;1451;-70
2021/09/18 08:18:46;;;;;;;;;;;21.10;71.50;;;;;;5013113;28;1342;-70
2021/09/18 08:21:12;;;;;;;;;;;21.20;71.60;;;;;;5013513;28;1361;-70
2021/09/18 08:23:37;;;;;;;;;;;21.10;72.30;;;;;;5013524;28;1107;-68
2021/09/18 08:26:03;;;;;;;;;;;21.20;71.60;;;;;;5013301;28;1971;-70
2021/09/18 08:28:28;;;;;;;;;;;21.10;71.50;;;;;;5013359;28;1303;-71
2021/09/18 08:30:54;;;;;;;;;;;21.10;71.60;;;;;;5013349;28;1296;-71
2021/09/18 08:33:19;;;;;;;;;;;21.10;71.60;;;;;;5013068;28;1133;-70
2021/09/18 08:35:45;;;;;;;;;;;21.10;71.70;;;;;;5012339;28;1272;-70
2021/09/18 08:38:10;;;;;;;;;;;21.10;71.70;;;;;;4995606;28;1221;-70
2021/09/18 08:40:36;;;;;;;;;;;21.10;71.80;;;;;;4995551;28;1377;-70
2021/09/18 08:43:02;;;;;;;;;;;21.10;71.90;;;;;;5014960;28;1314;-71
2021/09/18 08:45:27;;;;;;;;;;;21.20;71.80;;;;;;5024727;28;1887;-71
2021/09/18 08:47:52;;;;;;;;;;;21.20;71.70;;;;;;5012632;28;1325;-71
2021/09/18 08:50:20;;;;;;;;;;;21.20;71.70;;;;;;5013300;28;1247;-71
2021/09/18 08:52:45;;;;;;;;;;;21.20;71.80;;;;;;5013190;28;1371;-71
2021/09/18 08:55:11;;;;;;;;;;;21.20;71.70;;;;;;4995612;28;1264;-71
2021/09/18 08:57:36;;;;;;;;;;;21.20;71.60;;;;;;4995167;28;1065;-71
2021/09/18 09:00:02;;;;;;;;;;;21.20;71.60;;;;;;5013137;28;1233;-71
2021/09/18 09:02:30;;;;;;;;;;;21.20;71.50;;;;;;5012691;28;1216;-71
2021/09/18 09:05:08;;;;;;;;;;;21.20;71.50;;;;;;5013143;28;1267;-71
2021/09/18 09:07:33;;;;;;;;;;;21.20;71.40;;;;;;4995050;28;1903;-70
2021/09/18 09:10:02;;;;;;;;;;;21.30;72.10;;;;;;4995279;28;1366;-70
2021/09/18 09:12:34;;;;;;;;;;;21.30;71.30;;;;;;4995720;28;1132;-70
2021/09/18 09:15:00;;;;;;;;;;;21.30;71.20;;;;;;4995204;28;1282;-70
2021/09/18 09:17:29;;;;;;;;;;;21.30;71.10;;;;;;5012652;28;1294;-71
2021/09/18 09:19:55;;;;;;;;;;;21.30;71.00;;;;;;5012767;28;1259;-71
2021/09/18 09:22:41;;;;;;;;;;;21.40;70.90;;;;;;5012882;28;1555;-71
2021/09/18 09:25:22;;;;;;;;;;;21.40;70.80;;;;;;4995574;28;1101;-71
2021/09/18 09:27:47;;;;;;;;;;;21.40;70.70;;;;;;5012675;28;1313;-71
2021/09/18 09:30:13;;;;;;;;;;;21.40;70.60;;;;;;5055698;23;2799;-70
2021/09/18 09:32:38;;;;;;;;;;;21.50;70.60;;;;;;5034336;28;1566;-71
2021/09/18 09:35:04;;;;;;;;;;;21.50;70.50;;;;;;5034471;28;1128;-70
2021/09/18 09:37:29;;;;;;;;;;;21.50;70.50;;;;;;5051978;28;1382;-71
2021/09/18 09:39:55;;;;;;;;;;;21.50;70.40;;;;;;5043217;28;1324;-70
2021/09/18 09:42:28;;;;;;;;;;;21.50;70.40;;;;;;5032622;28;1365;-70
2021/09/18 09:44:54;;;;;;;;;;;21.50;70.30;;;;;;5032369;28;1325;-70
2021/09/18 09:47:22;;;;;;;;;;;21.60;70.30;;;;;;5032907;28;1906;-70
2021/09/18 09:49:53;;;;;;;;;;;21.60;70.20;;;;;;5018740;28;1283;-70
2021/09/18 09:52:25;;;;;;;;;;;21.60;70.10;;;;;;5018752;28;1373;-70
2021/09/18 09:54:51;;;;;;;;;;;21.60;70.10;;;;;;5035944;28;1132;-71
2021/09/18 09:57:16;;;;;;;;;;;21.60;70.10;;;;;;5018107;28;1343;-70
2021/09/18 09:59:42;;;;;;;;;;;21.60;70.00;;;;;;5018403;28;1340;-71
2021/09/18 10:02:08;;;;;;;;;;;21.60;70.00;;;;;;5035975;28;1182;-70
2021/09/18 10:04:33;;;;;;;;;;;21.60;70.00;;;;;;5035746;28;1342;-70
2021/09/18 10:06:59;;;;;;;;;;;21.60;70.00;;;;;;5035430;28;1935;-71
2021/09/18 10:09:24;;;;;;;;;;;21.60;70.00;;;;;;5035496;28;1303;-70
2021/09/18 10:11:51;;;;;;;;;;;21.60;70.00;;;;;;5018115;28;1101;-70
2021/09/18 10:14:19;;;;;;;;;;;21.60;70.00;;;;;;5018258;28;1355;-71
2021/09/18 10:16:46;;;;;;;;;;;21.60;70.00;;;;;;5035423;28;1361;-70
2021/09/18 10:19:11;;;;;;;;;;;21.60;70.00;;;;;;5035495;28;1362;-71
2021/09/18 10:24:22;;;;;;;;;;;21.60;70.10;;;;;;5009152;28;1186;-71
2021/09/18 10:27:06;;;;;;;;;;;21.60;70.10;;;;;;5017366;28;1894;-70
2021/09/18 10:29:32;;;;;;;;;;;21.60;70.10;;;;;;5035226;28;1280;-70
2021/09/18 10:32:01;;;;;;;;;;;21.60;70.10;;;;;;5017726;28;1535;-70
2021/09/18 10:34:27;;;;;;;;;;;21.60;70.10;;;;;;5017775;28;1335;-70
2021/09/18 10:36:52;;;;;;;;;;;21.60;70.20;;;;;;5034939;28;1269;-70
2021/09/18 10:39:19;;;;;;;;;;;21.60;70.90;;;;;;5017562;28;1280;-70
2021/09/18 10:41:51;;;;;;;;;;;21.60;70.20;;;;;;5017663;28;1132;-70
2021/09/18 10:44:17;;;;;;;;;;;21.60;70.20;;;;;;5035088;28;1292;-71
2021/09/18 10:46:44;;;;;;;;;;;21.60;70.20;;;;;;5016940;28;1902;-71
2021/09/18 10:49:28;;;;;;;;;;;21.60;70.30;;;;;;5034916;28;1325;-71
2021/09/18 10:51:54;;;;;;;;;;;21.60;70.30;;;;;;5034971;28;1104;-71
2021/09/18 10:54:20;;;;;;;;;;;21.60;70.30;;;;;;5034770;28;1395;-71
2021/09/18 10:56:54;;;;;;;;;;;21.60;71.00;;;;;;5016977;28;1316;-71
2021/09/18 10:59:38;;;;;;;;;;;21.50;70.30;;;;;;5033447;28;1406;-70
2021/09/18 11:02:22;;;;;;;;;;;21.50;70.30;;;;;;5034770;28;1059;-72
2021/09/18 11:04:48;;;;;;;;;;;21.50;70.30;;;;;;5034796;28;1338;-72
2021/09/18 11:07:32;;;;;;;;;;;21.50;70.30;;;;;;5016689;28;1906;-72
2021/09/18 11:09:57;;;;;;;;;;;21.50;70.40;;;;;;5034438;28;1690;-72
2021/09/18 11:12:23;;;;;;;;;;;21.50;70.40;;;;;;5016900;28;1438;-72
2021/09/18 11:15:07;;;;;;;;;;;21.50;70.40;;;;;;5016817;28;1321;-72
2021/09/18 11:17:33;;;;;;;;;;;21.50;70.40;;;;;;5034304;28;1340;-72
2021/09/18 11:20:11;;;;;;;;;;;21.50;70.40;;;;;;5034237;28;1353;-72
2021/09/18 11:22:36;;;;;;;;;;;21.50;70.50;;;;;;5016900;28;1273;-71
2021/09/18 11:25:21;;;;;;;;;;;21.50;70.50;;;;;;5016693;28;1207;-72
2021/09/18 11:27:56;;;;;;;;;;;21.50;70.50;;;;;;5034102;28;1270;-72
2021/09/18 11:30:21;;;;;;;;;;;21.50;70.50;;;;;;5016383;28;1360;-72
2021/09/18 11:32:47;;;;;;;;;;;21.50;70.60;;;;;;5034455;28;1293;-72
2021/09/18 11:35:12;;;;;;;;;;;21.40;70.50;;;;;;5016472;28;1335;-72
2021/09/18 11:37:39;;;;;;;;;;;21.50;70.60;;;;;;5016228;28;1491;-72
2021/09/18 11:40:05;;;;;;;;;;;21.50;70.60;;;;;;5033949;28;1434;-72
2021/09/18 11:42:31;;;;;;;;;;;21.40;70.60;;;;;;5034112;28;1286;-72
2021/09/18 11:45:19;;;;;;;;;;;21.40;70.60;;;;;;5033746;28;1305;-72
2021/09/18 11:47:45;;;;;;;;;;;21.40;70.70;;;;;;5020488;28;1376;-72
2021/09/18 11:50:30;;;;;;;;;;;21.40;70.70;;;;;;5016127;28;1332;-72
2021/09/18 11:52:59;;;;;;;;;;;21.40;70.70;;;;;;5016187;28;1679;-72
2021/09/18 11:55:28;;;;;;;;;;;21.40;70.80;;;;;;5033677;28;1367;-73
2021/09/18 11:58:08;;;;;;;;;;;21.40;71.20;;;;;;5033630;28;1351;-72
2021/09/18 12:00:34;;;;;;;;;;;21.40;71.50;;;;;;5033713;28;1328;-72
2021/09/18 12:03:00;;;;;;;;;;;21.40;71.60;;;;;;5033554;28;1298;-72
2021/09/18 12:05:25;;;;;;;;;;;21.40;71.70;;;;;;5015877;28;1906;-72
2021/09/18 12:07:51;;;;;;;;;;;21.40;71.80;;;;;;5033235;28;1384;-72
2021/09/18 12:10:20;;;;;;;;;;;21.40;71.70;;;;;;5033425;28;1263;-72
2021/09/18 12:12:56;;;;;;;;;;;21.40;71.60;;;;;;5033483;28;1498;-72
2021/09/18 12:15:48;;;;;;;;;;;21.40;71.80;;;;;;5015721;28;1355;-73
2021/09/18 12:18:20;;;;;;;;;;;21.40;72.10;;;;;;5028532;28;1301;-73
2021/09/18 12:20:45;;;;;;;;;;;21.40;72.20;;;;;;5033287;28;1320;-73
2021/09/18 12:23:11;;;;;;;;;;;21.40;72.30;;;;;;5015751;28;1420;-73
2021/09/18 12:25:36;;;;;;;;;;;21.40;72.50;;;;;;4995527;28;1899;-73
2021/09/18 12:28:02;;;;;;;;;;;21.40;72.40;;;;;;5008208;28;1140;-73
2021/09/18 12:30:41;;;;;;;;;;;21.40;72.70;;;;;;5033010;28;1326;-73
2021/09/18 12:33:10;;;;;;;;;;;21.40;72.90;;;;;;5033072;28;1140;-72
2021/09/18 12:35:39;;;;;;;;;;;21.40;72.90;;;;;;5032810;28;1111;-73
2021/09/18 12:38:04;;;;;;;;;;;21.40;73.10;;;;;;5033215;28;1380;-73
2021/09/18 12:40:37;;;;;;;;;;;21.40;73.20;;;;;;5033104;28;1341;-72
2021/09/18 12:43:10;;;;;;;;;;;21.40;73.30;;;;;;5015455;28;1282;-72
2021/09/18 12:45:36;;;;;;;;;;;21.40;73.40;;;;;;5032522;28;1922;-72
2021/09/18 12:48:19;;;;;;;;;;;21.40;73.50;;;;;;5015246;28;1286;-72
2021/09/18 12:50:46;;;;;;;;;;;21.40;73.30;;;;;;5032898;28;1376;-72
2021/09/18 12:53:18;;;;;;;;;;;21.40;73.60;;;;;;5015283;28;1324;-72
2021/09/18 12:56:02;;;;;;;;;;;21.40;73.70;;;;;;5032535;28;1266;-72
2021/09/18 12:58:28;;;;;;;;;;;21.40;73.90;;;;;;5032868;28;1338;-72
2021/09/18 13:00:57;;;;;;;;;;;21.40;74.10;;;;;;5032512;28;1317;-73
2021/09/18 13:03:23;;;;;;;;;;;21.40;74.20;;;;;;5032765;28;1217;-73
2021/09/18 13:05:54;;;;;;;;;;;21.40;74.40;;;;;;5014547;28;1955;-73
2021/09/18 13:08:20;;;;;;;;;;;21.40;74.50;;;;;;5019998;28;1614;-72
2021/09/18 13:10:45;;;;;;;;;;;21.40;74.70;;;;;;5011350;28;1352;-72
2021/09/18 13:13:30;;;;;;;;;;;21.40;74.80;;;;;;5032810;28;1353;-73
2021/09/18 13:16:02;;;;;;;;;;;21.40;74.80;;;;;;5032223;28;1287;-72
2021/09/18 13:18:28;;;;;;;;;;;21.40;74.80;;;;;;5015010;28;1273;-72
2021/09/18 13:20:53;;;;;;;;;;;21.40;74.80;;;;;;5032570;28;1349;-73
2021/09/18 13:23:19;;;;;;;;;;;21.40;75.40;;;;;;5017613;28;1329;-73
2021/09/18 13:25:44;;;;;;;;;;;21.40;74.80;;;;;;5036204;28;1902;-73
2021/09/18 13:28:10;;;;;;;;;;;21.40;74.70;;;;;;5018973;28;1292;-73
2021/09/18 13:30:36;;;;;;;;;;;21.40;75.00;;;;;;5018926;28;1343;-72
2021/09/18 13:33:01;;;;;;;;;;;21.40;75.00;;;;;;5036548;28;1360;-73
2021/09/18 13:35:27;;;;;;;;;;;21.40;75.00;;;;;;5036185;28;1328;-72
2021/09/18 13:37:53;;;;;;;;;;;21.40;74.70;;;;;;5036595;28;1298;-72
2021/09/18 13:40:18;;;;;;;;;;;21.40;74.70;;;;;;5036388;28;1335;-72
2021/09/18 13:42:44;;;;;;;;;;;21.40;74.50;;;;;;5036486;28;1254;-72
2021/09/18 13:45:09;;;;;;;;;;;21.40;74.40;;;;;;5036148;28;1086;-72
2021/09/18 13:47:35;;;;;;;;;;;21.40;74.30;;;;;;5018090;28;1894;-72
2021/09/18 13:50:00;;;;;;;;;;;21.40;74.30;;;;;;5016982;28;1972;-71
2021/09/18 13:52:26;;;;;;;;;;;21.40;74.20;;;;;;5035115;28;1106;-71
2021/09/18 13:54:51;;;;;;;;;;;21.40;74.20;;;;;;5032037;28;1333;-73
2021/09/18 13:57:16;;;;;;;;;;;21.40;74.10;;;;;;5027144;28;1276;-73
2021/09/18 13:59:42;;;;;;;;;;;21.30;73.90;;;;;;5034458;28;1326;-71
2021/09/18 14:02:09;;;;;;;;;;;21.40;74.00;;;;;;5022214;28;1242;-72
2021/09/18 14:04:36;;;;;;;;;;;21.40;73.90;;;;;;5017592;28;1374;-72
2021/09/18 14:07:01;;;;;;;;;;;21.40;74.10;;;;;;5017996;28;1906;-72
2021/09/18 14:09:27;;;;;;;;;;;21.40;73.90;;;;;;5035765;28;1298;-72
2021/09/18 14:11:52;;;;;;;;;;;21.40;73.80;;;;;;5035506;28;1320;-72
2021/09/18 14:14:18;;;;;;;;;;;21.40;73.70;;;;;;5017764;28;1325;-71
2021/09/18 14:16:44;;;;;;;;;;;21.40;73.70;;;;;;5035016;28;1358;-71
2021/09/18 14:19:09;;;;;;;;;;;21.40;73.60;;;;;;5035319;28;1333;-71
2021/09/18 14:21:35;;;;;;;;;;;21.40;73.60;;;;;;5035740;28;1081;-71
2021/09/18 14:24:00;;;;;;;;;;;21.40;73.50;;;;;;5017361;28;2276;-71
2021/09/18 14:26:27;;;;;;;;;;;21.40;73.50;;;;;;5016352;28;1957;-72
2021/09/18 14:28:53;;;;;;;;;;;21.30;73.40;;;;;;5033262;28;1262;-75
2021/09/18 14:31:18;;;;;;;;;;;21.30;73.40;;;;;;5012793;28;1052;-75